createdAt,value
2022-08-05T00:01:48.574Z,7.93
2022-08-05T00:06:53.860Z,8.73
2022-08-05T00:12:00.278Z,7.73
2022-08-05T00:17:18.652Z,9.54
2022-08-05T00:22:12.520Z,9.68
2022-08-05T00:27:18.684Z,7.36
2022-08-05T00:32:25.878Z,8.68
2022-08-05T00:37:50.721Z,9.22
2022-08-05T00:42:36.803Z,8.34
2022-08-05T00:47:56.905Z,7.82
2022-08-05T00:52:48.010Z,10.08
2022-08-05T00:57:58.531Z,7.95
2022-08-05T01:03:00.364Z,9.07
2022-08-05T01:08:42.369Z,9.52
2022-08-05T01:13:12.860Z,9.21
2022-08-05T01:18:18.150Z,10.31
2022-08-05T01:23:24.470Z,8.75
2022-08-05T01:28:30.155Z,8.45
2022-08-05T01:33:36.446Z,11.19
2022-08-05T01:38:42.993Z,9.91
2022-08-05T01:43:49.260Z,10.15
2022-08-05T01:48:55.404Z,10.64
2022-08-05T01:54:02.132Z,10.11
2022-08-05T01:59:07.412Z,12.85
2022-08-05T02:04:13.188Z,10.43
2022-08-05T02:09:20.627Z,11.14
2022-08-05T02:14:25.669Z,9.62
2022-08-05T02:19:34.144Z,11.14
2022-08-05T02:24:37.706Z,9.64
2022-08-05T02:29:59.533Z,11.08
2022-08-05T02:34:54.754Z,10.18
2022-08-05T02:39:55.752Z,11.41
2022-08-05T02:45:02.001Z,11.84
2022-08-05T02:50:08.204Z,11.66
2022-08-05T02:55:13.975Z,12.09
2022-08-05T03:00:19.715Z,10.67
2022-08-05T03:06:55.444Z,9.77
2022-08-05T03:10:31.598Z,11.11
2022-08-05T03:15:37.862Z,10.13
2022-08-05T03:20:48.765Z,8.65
2022-08-05T03:26:04.599Z,10.20
2022-08-05T03:30:55.664Z,10.35
2022-08-05T03:36:02.361Z,12.92
2022-08-05T03:41:10.709Z,9.27
2022-08-05T03:46:13.769Z,8.21
2022-08-05T03:52:38.611Z,8.96
2022-08-05T03:56:30.514Z,8.96
2022-08-05T04:01:32.166Z,8.61
2022-08-05T04:06:36.729Z,9.55
2022-08-05T04:12:05.421Z,7.81
2022-08-05T04:17:11.386Z,9.30
2022-08-05T04:22:20.466Z,8.64
2022-08-05T04:27:33.334Z,8.93
2022-08-05T04:32:30.703Z,9.26
2022-08-05T04:38:02.054Z,10.83
2022-08-05T04:42:40.428Z,8.51
2022-08-05T04:47:47.339Z,7.94
2022-08-05T04:52:51.842Z,8.99
2022-08-05T04:57:58.432Z,10.19
2022-08-05T05:03:04.580Z,10.45
2022-08-05T05:08:14.322Z,8.08
2022-08-05T05:13:16.473Z,8.82
2022-08-05T05:18:31.638Z,8.39
2022-08-05T05:24:01.717Z,8.34
2022-08-05T05:28:38.875Z,7.60
2022-08-05T05:33:58.597Z,10.99
2022-08-05T05:38:46.293Z,7.39
2022-08-05T05:43:57.435Z,8.32
2022-08-05T05:48:57.677Z,7.05
2022-08-05T05:54:03.421Z,7.12
2022-08-05T05:59:09.731Z,9.35
2022-08-05T06:04:15.510Z,8.48
2022-08-05T06:09:24.857Z,8.82
2022-08-05T06:14:27.872Z,9.34
2022-08-05T06:19:35.223Z,9.63
2022-08-05T06:24:39.362Z,10.38
2022-08-05T06:29:53.278Z,8.61
2022-08-05T06:34:53.337Z,9.86
2022-08-05T06:39:57.231Z,8.55
2022-08-05T06:45:05.211Z,8.57
2022-08-05T06:50:09.698Z,8.64
2022-08-05T06:55:15.796Z,7.49
2022-08-05T07:00:24.994Z,6.96
2022-08-05T07:05:37.523Z,8.14
2022-08-05T07:10:34.301Z,9.46
2022-08-05T07:16:00.816Z,8.24
2022-08-05T07:20:46.644Z,8.35
2022-08-05T07:25:55.916Z,10.15
2022-08-05T07:30:58.517Z,7.38
2022-08-05T07:36:20.820Z,7.65
2022-08-05T07:42:08.866Z,8.01
2022-08-05T07:46:24.538Z,6.31
2022-08-05T07:51:40.265Z,9.15
2022-08-05T07:56:59.840Z,10.05
2022-08-05T08:01:41.688Z,8.64
2022-08-05T08:06:42.717Z,6.38
2022-08-05T08:11:59.001Z,8.85
2022-08-05T08:16:54.361Z,7.92
2022-08-05T08:22:00.681Z,6.96
2022-08-05T08:27:07.587Z,7.26
2022-08-05T08:32:14.408Z,9.48
2022-08-05T08:37:20.184Z,8.89
2022-08-05T08:42:34.446Z,8.52
2022-08-05T08:48:06.980Z,7.25
2022-08-05T08:52:33.793Z,8.97
2022-08-05T08:57:48.128Z,6.97
2022-08-05T09:02:45.895Z,6.85
2022-08-05T09:07:57.484Z,8.75
2022-08-05T09:13:04.503Z,7.43
2022-08-05T09:18:03.729Z,6.28
2022-08-05T09:23:09.779Z,6.99
2022-08-05T09:28:15.169Z,8.20
2022-08-05T09:33:21.057Z,9.58
2022-08-05T09:38:27.393Z,6.80
2022-08-05T09:43:40.239Z,5.62
2022-08-05T09:48:38.628Z,5.11
2022-08-05T09:53:54.745Z,4.12
2022-08-05T09:58:51.478Z,4.26
2022-08-05T10:03:59.362Z,5.04
2022-08-05T10:09:02.948Z,4.46
2022-08-05T10:14:12.380Z,6.40
2022-08-05T10:19:18.919Z,5.00
2022-08-05T10:24:25.071Z,4.59
2022-08-05T10:30:06.868Z,4.19
2022-08-05T10:34:36.813Z,4.51
2022-08-05T10:40:03.255Z,3.55
2022-08-05T10:44:48.465Z,5.38
2022-08-05T10:50:33.062Z,4.17
2022-08-05T10:55:00.022Z,6.73
2022-08-05T11:00:09.076Z,6.52
2022-08-05T11:05:12.220Z,4.36
2022-08-05T11:10:17.992Z,4.34
2022-08-05T11:15:23.716Z,4.09
2022-08-05T11:20:29.340Z,4.10
2022-08-05T11:26:04.343Z,4.01
2022-08-05T11:30:41.631Z,4.36
2022-08-05T11:36:07.576Z,2.37
2022-08-05T11:40:53.425Z,5.64
2022-08-05T11:46:27.419Z,3.27
2022-08-05T11:51:05.561Z,5.05
2022-08-05T11:56:11.481Z,2.40
2022-08-05T12:01:19.147Z,3.55
2022-08-05T12:06:23.361Z,3.81
2022-08-05T12:11:40.357Z,3.59
2022-08-05T12:16:38.469Z,4.39
2022-08-05T12:21:41.305Z,3.10
2022-08-05T12:26:47.653Z,3.95
2022-08-05T12:31:54.496Z,3.83
2022-08-05T12:36:59.912Z,4.47
2022-08-05T12:42:06.037Z,4.26
2022-08-05T12:47:12.603Z,3.53
2022-08-05T12:52:23.797Z,3.79
2022-08-05T12:57:23.924Z,2.74
2022-08-05T13:02:30.750Z,3.68
2022-08-05T13:07:59.660Z,1.08
2022-08-05T13:12:50.698Z,1.83
2022-08-05T13:17:47.547Z,2.62
2022-08-05T13:22:53.697Z,3.10
2022-08-05T13:28:00.106Z,2.46
2022-08-05T13:33:06.996Z,2.38
2022-08-05T13:38:28.088Z,2.40
2022-08-05T13:43:22.010Z,1.60
2022-08-05T13:48:57.439Z,2.81
2022-08-05T13:53:32.597Z,1.91
2022-08-05T13:58:38.444Z,1.87
2022-08-05T14:03:46.887Z,1.86
2022-08-05T14:08:50.285Z,3.63
2022-08-05T14:13:56.944Z,1.32
2022-08-05T14:19:04.401Z,1.41
2022-08-05T14:24:07.821Z,1.63
2022-08-05T14:29:16.748Z,1.35
2022-08-05T14:34:23.767Z,2.92
2022-08-05T14:39:26.466Z,1.81
2022-08-05T14:44:32.089Z,1.40
2022-08-05T14:49:56.286Z,2.12
2022-08-05T14:54:52.954Z,1.44
2022-08-05T14:59:50.126Z,2.20
2022-08-05T15:04:56.594Z,2.20
2022-08-05T15:10:03.354Z,3.22
2022-08-05T15:15:15.392Z,1.30
2022-08-05T15:20:18.712Z,2.62
2022-08-05T15:25:23.207Z,2.28
2022-08-05T15:30:25.894Z,1.18
2022-08-05T15:35:36.240Z,2.38
2022-08-05T15:40:58.490Z,1.78
2022-08-05T15:45:43.480Z,2.09
2022-08-05T15:50:49.213Z,1.55
2022-08-05T15:56:02.593Z,1.67
2022-08-05T16:01:11.868Z,1.90
2022-08-05T16:06:06.451Z,1.45
2022-08-05T16:11:12.643Z,1.71
2022-08-05T16:16:23.591Z,2.67
2022-08-05T16:21:58.741Z,2.33
2022-08-05T16:26:30.166Z,1.15
2022-08-05T16:31:57.355Z,1.44
2022-08-05T16:36:42.757Z,1.75
2022-08-05T16:42:14.902Z,1.28
2022-08-05T16:46:55.629Z,1.30
2022-08-05T16:51:59.725Z,1.92
2022-08-05T16:57:06.764Z,2.21
2022-08-05T17:02:11.337Z,1.70
2022-08-05T17:07:17.336Z,1.65
2022-08-05T17:12:50.978Z,3.11
2022-08-05T17:17:41.982Z,2.17
2022-08-05T17:22:34.610Z,1.24
2022-08-05T17:27:40.379Z,0.92
2022-08-05T17:33:38.917Z,1.23
2022-08-05T17:38:43.178Z,2.41
2022-08-05T17:43:53.369Z,1.40
2022-08-05T17:48:54.934Z,1.63
2022-08-05T17:54:01.149Z,2.05
2022-08-05T17:59:07.762Z,1.95
2022-08-05T18:04:13.753Z,0.85
2022-08-05T18:09:19.444Z,2.87
2022-08-05T18:14:25.740Z,3.46
2022-08-05T18:19:31.897Z,2.22
2022-08-05T18:24:39.673Z,1.86
2022-08-05T18:29:43.829Z,3.00
2022-08-05T18:34:50.041Z,2.05
2022-08-05T18:41:50.555Z,3.03
2022-08-05T18:45:04.884Z,1.37
2022-08-05T18:50:11.323Z,2.10
2022-08-05T18:55:17.545Z,1.94
2022-08-05T19:00:28.432Z,2.48
2022-08-05T19:06:11.364Z,3.66
2022-08-05T19:10:35.624Z,2.77
2022-08-05T19:15:59.020Z,2.45
2022-08-05T19:20:47.212Z,1.21
2022-08-05T19:25:53.753Z,2.42
2022-08-05T19:30:59.386Z,2.34
2022-08-05T19:36:06.369Z,1.91
2022-08-05T19:41:10.808Z,3.05
2022-08-05T19:46:30.185Z,1.80
2022-08-05T19:52:04.938Z,2.82
2022-08-05T19:56:29.939Z,2.49
2022-08-05T20:01:33.741Z,3.13
2022-08-05T20:06:45.782Z,3.12
2022-08-05T20:11:48.165Z,1.61
2022-08-05T20:16:51.249Z,1.24
2022-08-05T20:21:57.377Z,1.37
2022-08-05T20:27:03.532Z,3.64
2022-08-05T20:32:10.211Z,2.58
2022-08-05T20:37:24.353Z,3.51
2022-08-05T20:42:21.739Z,2.39
2022-08-05T20:47:32.073Z,2.08
2022-08-05T20:52:32.668Z,1.45
2022-08-05T20:57:43.476Z,1.61
2022-08-05T21:02:45.082Z,2.39
2022-08-05T21:07:52.156Z,2.69
2022-08-05T21:13:08.841Z,2.00
2022-08-05T21:18:05.278Z,2.57
2022-08-05T21:23:11.496Z,1.76
2022-08-05T21:28:18.651Z,2.26
2022-08-05T21:33:23.574Z,1.95
2022-08-05T21:38:28.869Z,1.69
2022-08-05T21:43:41.728Z,2.87
2022-08-05T21:48:41.025Z,3.19
2022-08-05T21:53:47.101Z,3.13
2022-08-05T21:58:57.805Z,1.99
2022-08-05T22:03:59.270Z,3.25
2022-08-05T22:09:14.884Z,3.52
2022-08-05T22:14:38.770Z,2.10
2022-08-05T22:20:01.554Z,3.05
2022-08-05T22:24:52.245Z,2.17
2022-08-05T22:29:56.425Z,2.64
2022-08-05T22:35:02.076Z,1.35
2022-08-05T22:40:07.993Z,2.15
2022-08-05T22:45:13.657Z,2.89
2022-08-05T22:50:23.522Z,2.13
2022-08-05T22:55:26.112Z,3.61
2022-08-05T23:00:31.284Z,1.58
2022-08-05T23:05:37.200Z,2.32
2022-08-05T23:10:43.052Z,3.75
2022-08-05T23:11:57.106Z,2.09
2022-08-05T23:17:02.890Z,1.96
2022-08-05T23:22:09.197Z,2.15
2022-08-05T23:27:14.898Z,3.26
2022-08-05T23:32:22.513Z,2.76
2022-08-05T23:37:34.227Z,2.66
2022-08-05T23:42:33.614Z,2.25
2022-08-05T23:47:48.035Z,2.54
2022-08-05T23:52:50.488Z,3.09
2022-08-05T23:57:52.896Z,2.23
